Union Ranger — SYMB — position and weather

sailwx.info

Track history (hours):
 
Tides and Currents Weather Stations Pressure Air Temp Water Temp Dewpoint Dewpoint Depression Visibility Wind Speed Wind Dir Waves Ship Positions

Union Ranger

Last reported at 2016-Jan-24 15:32 UTC. Time now 2016-Feb-07 17:25 UTC.
Position N 41°00' E 028°60'.
Warning: this ship's position is 14 days out of date.

Length 185 m; draft 5.7 m.

Type: Ship. MMSI: 240070000.

Date/timePositionNaut miles runAvg speedWind from/ knotsBaromVisibWave heightAir tempDewpointWater temp
2016-Jan-24 15:32N 41°00' E 028°60'1110.1
2016-Jan-24 14:24N 40°49' E 028°59'7 7.7
2016-Jan-24 13:33N 40°43' E 028°56'1 0.6
2016-Jan-24 12:31N 40°43' E 028°56'1 1.2
2016-Jan-24 11:34N 40°44' E 028°57'1 1.3
2016-Jan-24 10:33N 40°46' E 028°57'1 1.4
2016-Jan-24 09:33N 40°47' E 028°57'8 8.3
2016-Jan-24 08:34N 40°51' E 028°47'23210.1
2016-Jan-23 09:31N 37°44' E 025°48'1010.9
2016-Jan-23 08:34N 37°34' E 025°50'1110.8
2016-Jan-23 07:34N 37°24' E 025°55'3012.2
2016-Jan-23 05:05N 36°57' E 026°13'1912.0
2016-Jan-23 03:31N 36°44' E 026°29'1111.6
2016-Jan-23 02:33N 36°36' E 026°40'  
Track history (hours):
 
Tides and Currents Weather Stations Pressure Air Temp Water Temp Dewpoint Dewpoint Depression Visibility Wind Speed Wind Dir Waves Ship Positions

Union Ranger

Last reported at 2016-Jan-24 15:32 UTC. Time now 2016-Feb-07 17:25 UTC.
Position N 41°00' E 028°60'.
Warning: this ship's position is 14 days out of date.

Length 185 m; draft 5.7 m.

Type: Ship. MMSI: 240070000.

Date/timePositionNaut miles runAvg speedWind from/ knotsBaromVisibWave heightAir tempDewpointWater temp
2016-Jan-24 15:32N 41°00' E 028°60'1110.1
2016-Jan-24 14:24N 40°49' E 028°59'7 7.7
2016-Jan-24 13:33N 40°43' E 028°56'1 0.6
2016-Jan-24 12:31N 40°43' E 028°56'1 1.2
2016-Jan-24 11:34N 40°44' E 028°57'1 1.3
2016-Jan-24 10:33N 40°46' E 028°57'1 1.4
2016-Jan-24 09:33N 40°47' E 028°57'8 8.3
2016-Jan-24 08:34N 40°51' E 028°47'23210.1
2016-Jan-23 09:31N 37°44' E 025°48'1010.9
2016-Jan-23 08:34N 37°34' E 025°50'1110.8
2016-Jan-23 07:34N 37°24' E 025°55'3012.2
2016-Jan-23 05:05N 36°57' E 026°13'1912.0
2016-Jan-23 03:31N 36°44' E 026°29'1111.6
2016-Jan-23 02:33N 36°36' E 026°40'  

Dump ship's entire track history